EZY81KE EGPF-LIRF
Flight info
| Callsign | EZY81KE |
|---|---|
| Flight time | N/A |
| Altitude | 29000 |
| Route | NORBO T256 RIPNO DCT AKOMU DCT VAMEB UL612 HON DCT XAMAB DCT VEULE DCT KOTAP DCT KETEX DCT KOTIS DCT KUKOR DCT UTUVA DCT TITVA DCT NOQAS DCT OTROT DCT RETNO DCT KOLON DCT RAPUR DCT RATAP DCT BTA DCT MOULE DCT XOPTA DCT ELB DCT ELKAP |
| Aircraft | A320/M-SDE3FGHIRWY/LB1 |
Departure
| Time | 2026-05-06 18:19 |
|---|---|
| Airport | Glasgow Airport (EGPF) |
Arrival
| Time | N/A |
|---|---|
| Airport | Rome–Fiumicino Leonardo da Vinci International Airport (LIRF) |
| Time | Latitude | Longitude | Altitude | Speed | Heading |
|---|---|---|---|---|---|
| 2026-05-06 17:47 | 55.86624 | -4.43115 | 29 ft | 0 kts | 74° |
| 2026-05-06 18:10 | 55.86623 | -4.43120 | 29 ft | 2 kts | 73° |
| 2026-05-06 18:10 | 55.86614 | -4.43162 | 29 ft | 4 kts | 55° |
| 2026-05-06 18:10 | 55.86596 | -4.43192 | 29 ft | 4 kts | 11° |
| 2026-05-06 18:10 | 55.86583 | -4.43193 | 29 ft | 0 kts | 344° |
| 2026-05-06 18:13 | 55.86598 | -4.43200 | 29 ft | 4 kts | 344° |
| 2026-05-06 18:13 | 55.86642 | -4.43222 | 29 ft | 8 kts | 344° |
| 2026-05-06 18:13 | 55.86691 | -4.43248 | 29 ft | 7 kts | 344° |
| 2026-05-06 18:14 | 55.86735 | -4.43271 | 29 ft | 1 kts | 342° |
| 2026-05-06 18:14 | 55.86784 | -4.43290 | 29 ft | 9 kts | 0° |
| 2026-05-06 18:14 | 55.86816 | -4.43222 | 29 ft | 7 kts | 72° |
| 2026-05-06 18:14 | 55.86834 | -4.43111 | 29 ft | 11 kts | 74° |
| 2026-05-06 18:15 | 55.86865 | -4.42974 | 29 ft | 12 kts | 40° |
| 2026-05-06 18:15 | 55.86934 | -4.42907 | 29 ft | 13 kts | 27° |
| 2026-05-06 18:15 | 55.87037 | -4.42825 | 29 ft | 19 kts | 19° |
| 2026-05-06 18:15 | 55.87159 | -4.42747 | 29 ft | 18 kts | 20° |
| 2026-05-06 18:16 | 55.87270 | -4.42670 | 29 ft | 16 kts | 20° |
| 2026-05-06 18:16 | 55.87368 | -4.42606 | 29 ft | 14 kts | 22° |
| 2026-05-06 18:16 | 55.87438 | -4.42501 | 29 ft | 13 kts | 46° |
| 2026-05-06 18:16 | 55.87508 | -4.42368 | 29 ft | 17 kts | 46° |
| 2026-05-06 18:17 | 55.87565 | -4.42263 | 29 ft | 19 kts | 46° |
| 2026-05-06 18:17 | 55.87660 | -4.42084 | 29 ft | 20 kts | 46° |
| 2026-05-06 18:17 | 55.87758 | -4.41902 | 29 ft | 16 kts | 45° |
| 2026-05-06 18:17 | 55.87816 | -4.41847 | 29 ft | 8 kts | 14° |
| 2026-05-06 18:18 | 55.87868 | -4.41848 | 29 ft | 7 kts | 350° |
| 2026-05-06 18:18 | 55.87917 | -4.41891 | 29 ft | 9 kts | 318° |
| 2026-05-06 18:18 | 55.87921 | -4.41973 | 29 ft | 5 kts | 231° |
| 2026-05-06 18:18 | 55.87908 | -4.41998 | 29 ft | 7 kts | 226° |
| 2026-05-06 18:19 | 55.87719 | -4.42351 | 29 ft | 76 kts | 226° |
| 2026-05-06 18:19 | 55.87205 | -4.43309 | 29 ft | 136 kts | 226° |
| 2026-05-06 18:19 | 55.86466 | -4.44715 | 255 ft | 161 kts | 227° |
| 2026-05-06 18:19 | 55.85705 | -4.46161 | 943 ft | 161 kts | 224° |
| 2026-05-06 18:20 | 55.84892 | -4.47589 | 1414 ft | 175 kts | 223° |
| 2026-05-06 18:20 | 55.83973 | -4.49196 | 1849 ft | 192 kts | 224° |
| 2026-05-06 18:20 | 55.82956 | -4.50989 | 2135 ft | 220 kts | 224° |
| 2026-05-06 18:20 | 55.81833 | -4.52983 | 2621 ft | 241 kts | 223° |
| 2026-05-06 18:21 | 55.80633 | -4.55123 | 3461 ft | 247 kts | 223° |
| 2026-05-06 18:21 | 55.79409 | -4.57291 | 4341 ft | 251 kts | 223° |
| 2026-05-06 18:21 | 55.78162 | -4.59487 | 5208 ft | 255 kts | 223° |
| 2026-05-06 18:21 | 55.76892 | -4.61717 | 6064 ft | 258 kts | 224° |
| 2026-05-06 18:22 | 55.75607 | -4.63968 | 6899 ft | 261 kts | 224° |
| 2026-05-06 18:22 | 55.74304 | -4.66251 | 7713 ft | 265 kts | 224° |
| 2026-05-06 18:22 | 55.72988 | -4.68566 | 8555 ft | 267 kts | 224° |
| 2026-05-06 18:22 | 55.71655 | -4.70888 | 9396 ft | 270 kts | 224° |
| 2026-05-06 18:23 | 55.70289 | -4.73212 | 10169 ft | 273 kts | 223° |
| 2026-05-06 18:23 | 55.68696 | -4.75064 | 10875 ft | 278 kts | 203° |
| 2026-05-06 18:23 | 55.66788 | -4.75775 | 11487 ft | 289 kts | 186° |
| 2026-05-06 18:23 | 55.64689 | -4.75956 | 11674 ft | 313 kts | 184° |
| 2026-05-06 18:24 | 55.62455 | -4.76004 | 12065 ft | 328 kts | 178° |
| 2026-05-06 18:24 | 55.60179 | -4.75246 | 12706 ft | 337 kts | 165° |
| 2026-05-06 18:24 | 55.58027 | -4.73613 | 13369 ft | 345 kts | 153° |
| 2026-05-06 18:24 | 55.56050 | -4.71130 | 14007 ft | 352 kts | 143° |
| 2026-05-06 18:25 | 55.54135 | -4.68383 | 14622 ft | 357 kts | 143° |
| 2026-05-06 18:25 | 55.52200 | -4.65605 | 15214 ft | 361 kts | 143° |
| 2026-05-06 18:25 | 55.50242 | -4.62796 | 15803 ft | 365 kts | 143° |
| 2026-05-06 18:25 | 55.48261 | -4.59964 | 16386 ft | 369 kts | 144° |
| 2026-05-06 18:26 | 55.46255 | -4.57108 | 16983 ft | 373 kts | 144° |
| 2026-05-06 18:26 | 55.44223 | -4.54219 | 17557 ft | 377 kts | 144° |
| 2026-05-06 18:26 | 55.42172 | -4.51311 | 18114 ft | 381 kts | 144° |
| 2026-05-06 18:26 | 55.40097 | -4.48373 | 18623 ft | 385 kts | 144° |
| 2026-05-06 18:27 | 55.38003 | -4.45406 | 19113 ft | 388 kts | 144° |
| 2026-05-06 18:27 | 55.35887 | -4.42412 | 19599 ft | 392 kts | 144° |
| 2026-05-06 18:27 | 55.33751 | -4.39391 | 20110 ft | 396 kts | 144° |
| 2026-05-06 18:27 | 55.31595 | -4.36346 | 20609 ft | 400 kts | 144° |
| 2026-05-06 18:28 | 55.29417 | -4.33275 | 21104 ft | 403 kts | 144° |
| 2026-05-06 18:28 | 55.27212 | -4.30171 | 21604 ft | 407 kts | 144° |
| 2026-05-06 18:28 | 55.24992 | -4.27047 | 22087 ft | 411 kts | 144° |
| 2026-05-06 18:28 | 55.22748 | -4.23897 | 22572 ft | 415 kts | 144° |
| 2026-05-06 18:29 | 55.20482 | -4.20722 | 23050 ft | 419 kts | 144° |
| 2026-05-06 18:29 | 55.18232 | -4.17550 | 23502 ft | 423 kts | 141° |
| 2026-05-06 18:29 | 55.16123 | -4.13927 | 23908 ft | 427 kts | 135° |
| 2026-05-06 18:29 | 55.14071 | -4.10139 | 24298 ft | 430 kts | 135° |
| 2026-05-06 18:30 | 55.12012 | -4.06333 | 24677 ft | 433 kts | 134° |
| 2026-05-06 18:30 | 55.09932 | -4.02491 | 25045 ft | 436 kts | 134° |
| 2026-05-06 18:30 | 55.07834 | -3.98634 | 25415 ft | 438 kts | 134° |
| 2026-05-06 18:30 | 55.05732 | -3.94774 | 25772 ft | 441 kts | 134° |
| 2026-05-06 18:31 | 55.03608 | -3.90876 | 26128 ft | 444 kts | 134° |
| 2026-05-06 18:31 | 55.01478 | -3.86975 | 26474 ft | 446 kts | 134° |
| 2026-05-06 18:31 | 54.99331 | -3.83054 | 26813 ft | 448 kts | 134° |
| 2026-05-06 18:31 | 54.97168 | -3.79116 | 27170 ft | 451 kts | 134° |
| 2026-05-06 18:32 | 54.94956 | -3.75238 | 27497 ft | 452 kts | 139° |
| 2026-05-06 18:32 | 54.92471 | -3.71886 | 27873 ft | 452 kts | 148° |
| 2026-05-06 18:32 | 54.89790 | -3.69007 | 28228 ft | 454 kts | 149° |
| 2026-05-06 18:32 | 54.87083 | -3.66134 | 28545 ft | 456 kts | 149° |
| 2026-05-06 18:33 | 54.84373 | -3.63261 | 28846 ft | 459 kts | 149° |
| 2026-05-06 18:33 | 54.81638 | -3.60359 | 29133 ft | 461 kts | 149° |
| 2026-05-06 18:33 | 54.78936 | -3.57494 | 29415 ft | 463 kts | 149° |
| 2026-05-06 18:33 | 54.76175 | -3.54569 | 29703 ft | 466 kts | 149° |
| 2026-05-06 18:34 | 54.73405 | -3.51639 | 29963 ft | 468 kts | 149° |
| 2026-05-06 18:34 | 54.70615 | -3.48697 | 30207 ft | 470 kts | 149° |
| 2026-05-06 18:34 | 54.67816 | -3.45751 | 30450 ft | 471 kts | 149° |
| 2026-05-06 18:34 | 54.65012 | -3.42801 | 30697 ft | 473 kts | 149° |
| 2026-05-06 18:35 | 54.62194 | -3.39840 | 30909 ft | 474 kts | 149° |
| 2026-05-06 18:35 | 54.59370 | -3.36880 | 31176 ft | 475 kts | 148° |
| 2026-05-06 18:35 | 54.56538 | -3.33920 | 31465 ft | 475 kts | 148° |
| 2026-05-06 18:35 | 54.53716 | -3.30967 | 31750 ft | 475 kts | 148° |
| 2026-05-06 18:36 | 54.50891 | -3.28012 | 32036 ft | 475 kts | 148° |
| 2026-05-06 18:36 | 54.48062 | -3.25055 | 32317 ft | 475 kts | 148° |
| 2026-05-06 18:36 | 54.45278 | -3.22149 | 32581 ft | 475 kts | 148° |
| 2026-05-06 18:36 | 54.42452 | -3.19211 | 32930 ft | 473 kts | 148° |
| 2026-05-06 18:37 | 54.39637 | -3.16301 | 33292 ft | 471 kts | 148° |
| 2026-05-06 18:37 | 54.36825 | -3.13405 | 33607 ft | 471 kts | 148° |
| 2026-05-06 18:37 | 54.34020 | -3.10516 | 33892 ft | 470 kts | 148° |
| 2026-05-06 18:37 | 54.31214 | -3.07625 | 34143 ft | 471 kts | 148° |
| 2026-05-06 18:38 | 54.28410 | -3.04733 | 34380 ft | 470 kts | 148° |
| 2026-05-06 18:38 | 54.25600 | -3.01837 | 34614 ft | 470 kts | 148° |
| 2026-05-06 18:38 | 54.22798 | -2.98960 | 34846 ft | 469 kts | 148° |
| 2026-05-06 18:38 | 54.20000 | -2.96097 | 34990 ft | 469 kts | 149° |
| 2026-05-06 18:39 | 54.14287 | -2.91064 | 35028 ft | 459 kts | 157° |
| 2026-05-06 18:40 | 54.05490 | -2.84684 | 35025 ft | 457 kts | 157° |
| 2026-05-06 18:40 | 53.99640 | -2.80443 | 35024 ft | 457 kts | 157° |
| 2026-05-06 18:41 | 53.93794 | -2.76201 | 35019 ft | 457 kts | 157° |
| 2026-05-06 18:41 | 53.87992 | -2.72008 | 35028 ft | 456 kts | 157° |
| 2026-05-06 18:42 | 53.82155 | -2.67804 | 35032 ft | 455 kts | 157° |
| 2026-05-06 18:42 | 53.76315 | -2.63616 | 35031 ft | 455 kts | 157° |
| 2026-05-06 18:43 | 53.70481 | -2.59444 | 35033 ft | 455 kts | 158° |
| 2026-05-06 18:43 | 53.64661 | -2.55301 | 35045 ft | 453 kts | 158° |
| 2026-05-06 18:44 | 53.58860 | -2.51174 | 35043 ft | 452 kts | 158° |
| 2026-05-06 18:44 | 53.53108 | -2.47095 | 35042 ft | 451 kts | 158° |
| 2026-05-06 18:45 | 53.47322 | -2.43016 | 35041 ft | 451 kts | 158° |
| 2026-05-06 18:45 | 53.41534 | -2.38933 | 35038 ft | 450 kts | 158° |
| 2026-05-06 18:46 | 53.35761 | -2.34858 | 35037 ft | 450 kts | 158° |
| 2026-05-06 18:46 | 53.29980 | -2.30791 | 35033 ft | 450 kts | 158° |
| 2026-05-06 18:47 | 53.24200 | -2.26761 | 35028 ft | 450 kts | 158° |
| 2026-05-06 18:47 | 53.18422 | -2.22742 | 35031 ft | 449 kts | 158° |
| 2026-05-06 18:48 | 53.12695 | -2.18767 | 35038 ft | 449 kts | 158° |
| 2026-05-06 18:48 | 53.06924 | -2.14773 | 35039 ft | 448 kts | 158° |
| 2026-05-06 18:49 | 53.01163 | -2.10797 | 35039 ft | 448 kts | 158° |
| 2026-05-06 18:49 | 52.95410 | -2.06841 | 35039 ft | 447 kts | 158° |
| 2026-05-06 18:50 | 52.89661 | -2.02897 | 35040 ft | 447 kts | 158° |
| 2026-05-06 18:50 | 52.83916 | -1.98957 | 35044 ft | 446 kts | 159° |
| 2026-05-06 18:51 | 52.78187 | -1.95041 | 35046 ft | 445 kts | 159° |
| 2026-05-06 18:51 | 52.72464 | -1.91153 | 35032 ft | 444 kts | 159° |
| 2026-05-06 18:52 | 52.66791 | -1.87304 | 35049 ft | 443 kts | 159° |
| 2026-05-06 18:52 | 52.61087 | -1.83440 | 35054 ft | 443 kts | 159° |
| 2026-05-06 18:53 | 52.55385 | -1.79605 | 35060 ft | 443 kts | 159° |
| 2026-05-06 18:53 | 52.49686 | -1.75775 | 35052 ft | 442 kts | 159° |
| 2026-05-06 18:54 | 52.43995 | -1.71954 | 35058 ft | 442 kts | 159° |
| 2026-05-06 18:54 | 52.38304 | -1.68143 | 35055 ft | 442 kts | 160° |
| 2026-05-06 18:55 | 52.32799 | -1.63667 | 35053 ft | 443 kts | 151° |
| 2026-05-06 18:55 | 52.27468 | -1.58618 | 35024 ft | 443 kts | 152° |
| 2026-05-06 18:56 | 52.22124 | -1.53602 | 35021 ft | 443 kts | 152° |
| 2026-05-06 18:56 | 52.16781 | -1.48600 | 35022 ft | 443 kts | 152° |
| 2026-05-06 18:57 | 52.11439 | -1.43590 | 35024 ft | 442 kts | 152° |
| 2026-05-06 18:57 | 52.06106 | -1.38603 | 35030 ft | 442 kts | 152° |
| 2026-05-06 18:58 | 52.00775 | -1.33645 | 35026 ft | 442 kts | 152° |
| 2026-05-06 18:58 | 51.95434 | -1.28699 | 35030 ft | 441 kts | 152° |
| 2026-05-06 18:59 | 51.90105 | -1.23776 | 35035 ft | 441 kts | 152° |
| 2026-05-06 18:59 | 51.84777 | -1.18857 | 35035 ft | 441 kts | 152° |
| 2026-05-06 19:00 | 51.79481 | -1.13989 | 35019 ft | 441 kts | 152° |
| 2026-05-06 19:00 | 51.74156 | -1.09096 | 35005 ft | 440 kts | 152° |
| 2026-05-06 19:01 | 51.68834 | -1.04218 | 35038 ft | 440 kts | 152° |
| 2026-05-06 19:01 | 51.63513 | -0.99370 | 35036 ft | 439 kts | 153° |
| 2026-05-06 19:02 | 51.58198 | -0.94534 | 35033 ft | 439 kts | 153° |
| 2026-05-06 19:02 | 51.52886 | -0.89713 | 35015 ft | 438 kts | 153° |
| 2026-05-06 19:03 | 51.47577 | -0.84897 | 35017 ft | 438 kts | 153° |
| 2026-05-06 19:03 | 51.42279 | -0.80101 | 35018 ft | 437 kts | 153° |
| 2026-05-06 19:04 | 51.36972 | -0.75331 | 35014 ft | 437 kts | 153° |
| 2026-05-06 19:04 | 51.31665 | -0.70578 | 34983 ft | 437 kts | 153° |
| 2026-05-06 19:05 | 51.26362 | -0.65831 | 34984 ft | 437 kts | 153° |
| 2026-05-06 19:05 | 51.21051 | -0.61090 | 34985 ft | 437 kts | 153° |
| 2026-05-06 19:06 | 51.15781 | -0.56393 | 34986 ft | 437 kts | 153° |
| 2026-05-06 19:06 | 51.10475 | -0.51669 | 34986 ft | 437 kts | 153° |
| 2026-05-06 19:07 | 51.06021 | -0.47730 | 34988 ft | 437 kts | 153° |
| 2026-05-06 19:07 | 51.00734 | -0.43053 | 34991 ft | 437 kts | 153° |
| 2026-05-06 19:08 | 50.95419 | -0.38359 | 34989 ft | 437 kts | 153° |
| 2026-05-06 19:08 | 50.90091 | -0.33679 | 34991 ft | 437 kts | 153° |
| 2026-05-06 19:09 | 50.84775 | -0.29022 | 34982 ft | 437 kts | 153° |
| 2026-05-06 19:09 | 50.79449 | -0.24349 | 34985 ft | 437 kts | 153° |
| 2026-05-06 19:10 | 50.74130 | -0.19693 | 34998 ft | 438 kts | 153° |
| 2026-05-06 19:10 | 50.68796 | -0.15059 | 34991 ft | 438 kts | 153° |
| 2026-05-06 19:11 | 50.63463 | -0.10432 | 34982 ft | 438 kts | 153° |
| 2026-05-06 19:11 | 50.58393 | -0.06037 | 34987 ft | 438 kts | 153° |
| 2026-05-06 19:12 | 50.53058 | -0.01437 | 34980 ft | 437 kts | 153° |
| 2026-05-06 19:12 | 50.47715 | 0.03152 | 34990 ft | 438 kts | 153° |
| 2026-05-06 19:13 | 50.42376 | 0.07743 | 34981 ft | 437 kts | 152° |
| 2026-05-06 19:13 | 50.37073 | 0.12299 | 34974 ft | 438 kts | 152° |
| 2026-05-06 19:14 | 50.31703 | 0.16891 | 34977 ft | 438 kts | 152° |
| 2026-05-06 19:14 | 50.26374 | 0.21431 | 34980 ft | 438 kts | 152° |
| 2026-05-06 19:15 | 50.21016 | 0.25982 | 34987 ft | 438 kts | 152° |
| 2026-05-06 19:15 | 50.15794 | 0.30921 | 34984 ft | 439 kts | 147° |
| 2026-05-06 19:16 | 50.10741 | 0.36276 | 34980 ft | 440 kts | 146° |
| 2026-05-06 19:16 | 50.05677 | 0.41651 | 34987 ft | 440 kts | 147° |
| 2026-05-06 19:17 | 50.00570 | 0.46903 | 34990 ft | 440 kts | 147° |
| 2026-05-06 19:17 | 49.95441 | 0.52096 | 34983 ft | 440 kts | 147° |
| 2026-05-06 19:18 | 49.90313 | 0.57287 | 34982 ft | 440 kts | 147° |
| 2026-05-06 19:18 | 49.85213 | 0.62451 | 34984 ft | 440 kts | 147° |
| 2026-05-06 19:19 | 49.80181 | 0.67870 | 34980 ft | 441 kts | 144° |
| 2026-05-06 19:19 | 49.75236 | 0.73480 | 34982 ft | 441 kts | 144° |
| 2026-05-06 19:20 | 49.70273 | 0.79050 | 34984 ft | 441 kts | 144° |
| 2026-05-06 19:20 | 49.65272 | 0.84541 | 34984 ft | 441 kts | 144° |
| 2026-05-06 19:21 | 49.60269 | 0.90023 | 34991 ft | 441 kts | 144° |
| 2026-05-06 19:21 | 49.55297 | 0.95475 | 34998 ft | 441 kts | 144° |
| 2026-05-06 19:22 | 49.50291 | 1.00934 | 34999 ft | 441 kts | 145° |
| 2026-05-06 19:22 | 49.45283 | 1.06383 | 35000 ft | 441 kts | 144° |
| 2026-05-06 19:23 | 49.40280 | 1.11829 | 34999 ft | 441 kts | 145° |
| 2026-05-06 19:23 | 49.35265 | 1.17266 | 35001 ft | 441 kts | 145° |
| 2026-05-06 19:24 | 49.30255 | 1.22684 | 35003 ft | 441 kts | 145° |
| 2026-05-06 19:24 | 49.25241 | 1.28091 | 34999 ft | 441 kts | 145° |
| 2026-05-06 19:25 | 49.20227 | 1.33485 | 34988 ft | 440 kts | 145° |
| 2026-05-06 19:25 | 49.15211 | 1.38862 | 34980 ft | 440 kts | 145° |
| 2026-05-06 19:26 | 49.10202 | 1.44230 | 34973 ft | 440 kts | 145° |
| 2026-05-06 19:26 | 49.05215 | 1.49554 | 34968 ft | 440 kts | 145° |
| 2026-05-06 19:27 | 49.00192 | 1.54905 | 34965 ft | 441 kts | 145° |
| 2026-05-06 19:27 | 48.95164 | 1.60257 | 34966 ft | 441 kts | 145° |
| 2026-05-06 19:28 | 48.90137 | 1.65581 | 34969 ft | 441 kts | 145° |
| 2026-05-06 19:28 | 48.85096 | 1.70909 | 34972 ft | 441 kts | 145° |
| 2026-05-06 19:29 | 48.80050 | 1.76221 | 34960 ft | 441 kts | 146° |
| 2026-05-06 19:29 | 48.75003 | 1.81531 | 34951 ft | 441 kts | 147° |
| 2026-05-06 19:29 | 48.72312 | 1.83705 | 34955 ft | 439 kts | 159° |
| 2026-05-06 19:30 | 48.69482 | 1.85451 | 34960 ft | 439 kts | 159° |
| 2026-05-06 19:30 | 48.63814 | 1.88895 | 34967 ft | 439 kts | 159° |
| 2026-05-06 19:31 | 48.58174 | 1.92288 | 34958 ft | 439 kts | 159° |
| 2026-05-06 19:31 | 48.49662 | 1.97431 | 34941 ft | 439 kts | 159° |
| 2026-05-06 19:32 | 48.43988 | 2.00868 | 34942 ft | 440 kts | 159° |
| 2026-05-06 19:32 | 48.38314 | 2.04282 | 34940 ft | 440 kts | 159° |
| 2026-05-06 19:33 | 48.32631 | 2.07692 | 34945 ft | 440 kts | 159° |
| 2026-05-06 19:33 | 48.26949 | 2.11100 | 34944 ft | 439 kts | 159° |
| 2026-05-06 19:34 | 48.21263 | 2.14504 | 34951 ft | 439 kts | 159° |
| 2026-05-06 19:34 | 48.15596 | 2.17919 | 34959 ft | 439 kts | 159° |
| 2026-05-06 19:35 | 48.09937 | 2.21339 | 34965 ft | 438 kts | 159° |
| 2026-05-06 19:35 | 48.04280 | 2.24752 | 34971 ft | 438 kts | 159° |
| 2026-05-06 19:36 | 47.98663 | 2.28128 | 34969 ft | 438 kts | 159° |
| 2026-05-06 19:36 | 47.93005 | 2.31510 | 34974 ft | 438 kts | 159° |
| 2026-05-06 19:37 | 47.87348 | 2.34885 | 34975 ft | 438 kts | 159° |
| 2026-05-06 19:37 | 47.82609 | 2.37711 | 34973 ft | 437 kts | 159° |
| 2026-05-06 19:38 | 47.76044 | 2.41622 | 34954 ft | 437 kts | 159° |
| 2026-05-06 19:38 | 47.70383 | 2.44982 | 34950 ft | 438 kts | 159° |
| 2026-05-06 19:39 | 47.64731 | 2.48330 | 34945 ft | 438 kts | 159° |
| 2026-05-06 19:39 | 47.59069 | 2.51668 | 34954 ft | 438 kts | 159° |
| 2026-05-06 19:40 | 47.53408 | 2.54991 | 34953 ft | 437 kts | 159° |
| 2026-05-06 19:40 | 47.47744 | 2.58317 | 34955 ft | 438 kts | 159° |
| 2026-05-06 19:41 | 47.42087 | 2.61641 | 34957 ft | 437 kts | 159° |
| 2026-05-06 19:41 | 47.36434 | 2.64956 | 34957 ft | 438 kts | 159° |
| 2026-05-06 19:42 | 47.30796 | 2.68236 | 34952 ft | 438 kts | 160° |
| 2026-05-06 19:42 | 47.25124 | 2.71534 | 34954 ft | 438 kts | 159° |
| 2026-05-06 19:43 | 47.19451 | 2.74838 | 34957 ft | 438 kts | 159° |
| 2026-05-06 19:43 | 47.13779 | 2.78139 | 34956 ft | 438 kts | 160° |
| 2026-05-06 19:44 | 47.08101 | 2.81411 | 34944 ft | 438 kts | 160° |
| 2026-05-06 19:44 | 47.02428 | 2.84670 | 34941 ft | 438 kts | 160° |
| 2026-05-06 19:45 | 46.96749 | 2.87937 | 34946 ft | 438 kts | 160° |
| 2026-05-06 19:45 | 46.91079 | 2.91193 | 34942 ft | 437 kts | 160° |
| 2026-05-06 19:46 | 46.85407 | 2.94449 | 34944 ft | 437 kts | 160° |
| 2026-05-06 19:46 | 46.79743 | 2.97693 | 34944 ft | 437 kts | 160° |
| 2026-05-06 19:47 | 46.74081 | 3.00920 | 34946 ft | 437 kts | 160° |
| 2026-05-06 19:47 | 46.68410 | 3.04147 | 34949 ft | 437 kts | 160° |
| 2026-05-06 19:48 | 46.62779 | 3.07336 | 34945 ft | 437 kts | 160° |
| 2026-05-06 19:48 | 46.57101 | 3.10552 | 34948 ft | 437 kts | 160° |
| 2026-05-06 19:49 | 46.51417 | 3.13759 | 34947 ft | 438 kts | 160° |
| 2026-05-06 19:49 | 46.45721 | 3.16895 | 34949 ft | 438 kts | 161° |
| 2026-05-06 19:50 | 46.40017 | 3.20003 | 34949 ft | 438 kts | 161° |
| 2026-05-06 19:50 | 46.34314 | 3.23105 | 34948 ft | 438 kts | 161° |
| 2026-05-06 19:51 | 46.28616 | 3.26225 | 34947 ft | 437 kts | 161° |
| 2026-05-06 19:51 | 46.22968 | 3.29309 | 34947 ft | 437 kts | 161° |
| 2026-05-06 19:52 | 46.17284 | 3.32401 | 34946 ft | 436 kts | 161° |
| 2026-05-06 19:52 | 46.11602 | 3.35477 | 34939 ft | 436 kts | 161° |
| 2026-05-06 19:53 | 46.05922 | 3.38543 | 34943 ft | 436 kts | 161° |
| 2026-05-06 19:53 | 46.00247 | 3.41601 | 34946 ft | 435 kts | 161° |
| 2026-05-06 19:54 | 45.94575 | 3.44653 | 34945 ft | 435 kts | 161° |
| 2026-05-06 19:54 | 45.88900 | 3.47711 | 34954 ft | 435 kts | 161° |
| 2026-05-06 19:55 | 45.86174 | 3.49460 | 34954 ft | 437 kts | 150° |
| 2026-05-06 19:55 | 45.83744 | 3.52168 | 34954 ft | 440 kts | 136° |
| 2026-05-06 19:55 | 45.79519 | 3.58436 | 34947 ft | 440 kts | 135° |
| 2026-05-06 19:56 | 45.76017 | 3.63751 | 34949 ft | 441 kts | 135° |
| 2026-05-06 19:56 | 45.71807 | 3.70145 | 34948 ft | 441 kts | 135° |
| 2026-05-06 19:57 | 45.67586 | 3.76515 | 34938 ft | 441 kts | 136° |
| 2026-05-06 19:57 | 45.63346 | 3.82864 | 34943 ft | 441 kts | 136° |
| 2026-05-06 19:58 | 45.59096 | 3.89199 | 34945 ft | 442 kts | 136° |
| 2026-05-06 19:58 | 45.54845 | 3.95535 | 34951 ft | 442 kts | 136° |
| 2026-05-06 19:59 | 45.50621 | 4.01832 | 34944 ft | 442 kts | 136° |
| 2026-05-06 19:59 | 45.46360 | 4.08161 | 34951 ft | 443 kts | 136° |
| 2026-05-06 20:00 | 45.42072 | 4.14474 | 34954 ft | 443 kts | 137° |
| 2026-05-06 20:00 | 45.37749 | 4.20729 | 34954 ft | 443 kts | 137° |
| 2026-05-06 20:01 | 45.33419 | 4.26977 | 34953 ft | 444 kts | 137° |
| 2026-05-06 20:01 | 45.29090 | 4.33231 | 34946 ft | 444 kts | 138° |
| 2026-05-06 20:02 | 45.24764 | 4.39489 | 34950 ft | 444 kts | 138° |
| 2026-05-06 20:02 | 45.20433 | 4.45733 | 34951 ft | 444 kts | 138° |
| 2026-05-06 20:03 | 45.16098 | 4.51965 | 34950 ft | 444 kts | 138° |
| 2026-05-06 20:03 | 45.11768 | 4.58201 | 34951 ft | 444 kts | 138° |
| 2026-05-06 20:04 | 45.07434 | 4.64443 | 34929 ft | 444 kts | 139° |
| 2026-05-06 20:04 | 45.03122 | 4.70632 | 34934 ft | 444 kts | 139° |
| 2026-05-06 20:05 | 44.98776 | 4.76844 | 34938 ft | 444 kts | 139° |
| 2026-05-06 20:05 | 44.94422 | 4.83053 | 34938 ft | 444 kts | 139° |
| 2026-05-06 20:06 | 44.90071 | 4.89247 | 34942 ft | 444 kts | 139° |
| 2026-05-06 20:06 | 44.85723 | 4.95438 | 34914 ft | 444 kts | 139° |
| 2026-05-06 20:07 | 44.81373 | 5.01606 | 34923 ft | 444 kts | 140° |
| 2026-05-06 20:07 | 44.77013 | 5.07760 | 34933 ft | 444 kts | 140° |
| 2026-05-06 20:08 | 44.72657 | 5.13912 | 34939 ft | 444 kts | 140° |
| 2026-05-06 20:08 | 44.68302 | 5.20066 | 34948 ft | 444 kts | 140° |
| 2026-05-06 20:09 | 44.63940 | 5.26201 | 34949 ft | 444 kts | 140° |
| 2026-05-06 20:09 | 44.59573 | 5.32313 | 34949 ft | 443 kts | 140° |
| 2026-05-06 20:10 | 44.55202 | 5.38421 | 34952 ft | 443 kts | 141° |
| 2026-05-06 20:10 | 44.50838 | 5.44514 | 34958 ft | 443 kts | 141° |